Time;durP1;ratioP1;P1;durP2;ratioP2;P2;SDS_P1;SDS_P2;PMS_P1;PMS_P2;Temp;Humidity;BMP_temperature;BMP_pressure;BME280_temperature;BME280_humidity;BME280_pressure;Samples;Min_cycle;Max_cycle;Signal;HPM_P1;HPM_P2
2021/03/13 00:01:28;;;;;;;39.13;5.53;;;3.80;99.90;;;;;;4698877;30;20136;-84
2021/03/13 00:03:54;;;;;;;33.60;4.95;;;3.70;99.90;;;;;;4696730;30;20121;-87
2021/03/13 00:06:19;;;;;;;48.10;4.93;;;3.70;99.90;;;;;;4704838;30;20053;-85
2021/03/13 00:08:45;;;;;;;38.13;5.05;;;3.80;99.90;;;;;;4682735;30;20049;-83
2021/03/13 00:11:12;;;;;;;33.05;4.53;;;4.20;99.90;;;;;;4670210;30;20419;-84
2021/03/13 00:13:39;;;;;;;42.60;4.95;;;4.20;99.90;;;;;;4685658;30;20148;-85
2021/03/13 00:16:23;;;;;;;68.03;5.93;;;4.20;99.90;;;;;;4686386;30;20060;-83
2021/03/13 00:18:49;;;;;;;50.10;5.63;;;3.90;99.90;;;;;;4705417;30;20051;-85
2021/03/13 00:21:15;;;;;;;44.10;5.55;;;4.30;99.90;;;;;;4675143;30;20402;-86
2021/03/13 00:23:41;;;;;;;52.53;5.43;;;4.30;99.90;;;;;;4677355;30;20132;-86
2021/03/13 00:26:06;;;;;;;49.08;5.30;;;4.30;99.90;;;;;;4708036;30;20394;-84
2021/03/13 00:28:32;;;;;;;48.00;4.93;;;4.00;99.90;;;;;;4684578;30;20816;-86
2021/03/13 00:34:39;;;;;;;41.38;4.85;;;4.10;99.90;;;;;;4698775;30;20472;-85
2021/03/13 00:37:05;;;;;;;51.55;5.60;;;4.20;99.90;;;;;;4683317;30;20140;-85
2021/03/13 00:39:31;;;;;;;55.40;5.78;;;4.20;99.90;;;;;;4680830;30;20070;-85
2021/03/13 00:41:57;;;;;;;48.80;5.22;;;4.20;99.90;;;;;;4700732;30;20124;-87
2021/03/13 00:44:23;;;;;;;46.25;5.63;;;4.30;99.90;;;;;;4683624;30;20392;-85
2021/03/13 00:50:44;;;;;;;39.70;5.65;;;4.30;99.90;;;;;;4725418;30;20047;-86
2021/03/13 00:53:11;;;;;;;45.00;5.30;;;3.90;99.90;;;;;;4713259;30;20124;-84
2021/03/13 00:55:38;;;;;;;36.92;4.75;;;4.10;99.90;;;;;;4713951;30;20049;-84
2021/03/13 00:58:04;;;;;;;41.53;5.45;;;4.50;99.90;;;;;;4723012;30;20174;-84
2021/03/13 01:01:08;;;;;;;44.30;5.38;;;4.80;99.90;;;;;;4714951;30;20041;-87
2021/03/13 01:03:34;;;;;;;32.28;4.05;;;4.30;99.90;;;;;;4713097;30;20053;-85
2021/03/13 01:06:00;;;;;;;35.88;4.35;;;4.40;99.90;;;;;;4717829;30;20037;-85
2021/03/13 01:08:26;;;;;;;42.05;4.75;;;4.30;99.90;;;;;;4721115;30;20102;-86
2021/03/13 01:10:52;;;;;;;37.35;3.88;;;4.30;99.90;;;;;;4720948;30;20056;-86
2021/03/13 01:13:23;;;;;;;43.83;5.05;;;4.30;99.90;;;;;;4704730;30;20394;-85
2021/03/13 01:15:49;;;;;;;37.20;4.82;;;4.30;99.90;;;;;;4733757;30;20055;-85
2021/03/13 01:18:18;;;;;;;30.73;4.28;;;4.30;99.90;;;;;;4701586;30;20057;-86
2021/03/13 01:20:46;;;;;;;37.17;3.92;;;4.30;99.90;;;;;;4712474;30;20037;-86
2021/03/13 01:23:12;;;;;;;30.25;4.05;;;4.30;99.90;;;;;;4750755;29;20251;-84
2021/03/13 01:25:38;;;;;;;31.08;4.10;;;5.10;99.90;;;;;;4740467;30;20104;-80
2021/03/13 01:28:04;;;;;;;27.60;4.03;;;4.30;99.90;;;;;;4736368;30;20041;-83
2021/03/13 01:30:31;;;;;;;34.33;4.63;;;4.30;99.90;;;;;;4720652;30;20044;-86
2021/03/13 01:33:00;;;;;;;27.60;4.10;;;4.60;99.90;;;;;;4714395;30;20036;-86
2021/03/13 01:35:25;;;;;;;29.90;4.22;;;4.30;99.90;;;;;;4734217;30;20048;-85
2021/03/13 01:37:54;;;;;;;30.75;4.38;;;4.40;99.90;;;;;;4716274;30;20037;-88
2021/03/13 01:40:21;;;;;;;33.88;5.35;;;4.60;99.90;;;;;;4708146;30;20041;-87
2021/03/13 01:42:48;;;;;;;44.45;5.28;;;4.70;99.90;;;;;;4700011;30;20071;-84
2021/03/13 01:45:20;;;;;;;46.10;5.38;;;4.60;99.90;;;;;;4704182;30;20095;-86
2021/03/13 01:47:47;;;;;;;41.85;5.68;;;4.50;99.90;;;;;;4716357;30;20044;-85
2021/03/13 01:50:14;;;;;;;36.80;5.90;;;5.00;99.90;;;;;;4698911;30;20058;-87
2021/03/13 01:52:40;;;;;;;36.88;5.55;;;4.60;99.90;;;;;;4720069;30;20040;-87
2021/03/13 01:55:08;;;;;;;33.60;5.57;;;4.60;99.90;;;;;;4701499;30;20058;-86
2021/03/13 01:57:36;;;;;;;49.85;6.78;;;4.70;99.90;;;;;;4717976;30;20085;-88
2021/03/13 02:00:06;;;;;;;37.53;6.55;;;4.70;99.90;;;;;;4705626;30;20064;-85
2021/03/13 02:03:09;;;;;;;42.35;6.45;;;4.70;99.90;;;;;;4725675;30;20041;-86
2021/03/13 02:05:55;;;;;;;46.30;7.57;;;4.60;99.90;;;;;;4718024;30;20052;-87
2021/03/13 02:08:40;;;;;;;45.92;7.80;;;5.20;99.90;;;;;;4714454;30;20494;-85
2021/03/13 02:11:26;;;;;;;39.28;7.35;;;4.90;99.90;;;;;;4724251;30;20072;-84
2021/03/13 02:14:02;;;;;;;46.67;8.02;;;5.50;99.90;;;;;;4735835;30;20085;-86
2021/03/13 02:16:45;;;;;;;36.00;8.02;;;5.20;99.90;;;;;;4718417;30;20049;-85
2021/03/13 02:19:55;;;;;;;50.78;7.70;;;5.00;99.90;;;;;;4728436;30;20052;-87
2021/03/13 02:22:23;;;;;;;46.60;8.23;;;5.10;99.90;;;;;;4732747;30;20466;-85
2021/03/13 02:25:08;;;;;;;45.80;7.60;;;5.30;99.90;;;;;;4699269;30;20060;-88
2021/03/13 02:27:41;;;;;;;;;;;5.10;99.90;;;;;;4710330;30;20076;-88
2021/03/13 02:30:15;;;;;;;27.83;6.70;;;5.50;99.90;;;;;;4723031;30;19926;-86
2021/03/13 02:32:54;;;;;;;40.95;8.50;;;5.20;99.90;;;;;;4696044;30;20055;-85
2021/03/13 02:35:26;;;;;;;32.85;7.28;;;5.20;99.90;;;;;;4715103;30;20058;-85
2021/03/13 02:38:00;;;;;;;40.13;7.80;;;5.60;99.90;;;;;;4720461;30;20051;-89
2021/03/13 02:40:28;;;;;;;39.90;8.95;;;5.20;99.90;;;;;;4717128;30;20074;-86
2021/03/13 02:42:59;;;;;;;37.97;6.95;;;5.60;99.90;;;;;;4711544;30;20128;-87
2021/03/13 02:48:48;;;;;;;26.83;6.75;;;5.30;99.90;;;;;;4717421;30;20097;-85
2021/03/13 02:51:21;;;;;;;32.47;6.22;;;5.30;99.90;;;;;;4726738;30;20059;-87
2021/03/13 02:53:49;;;;;;;40.88;7.72;;;5.30;99.90;;;;;;4727903;30;20129;-85
2021/03/13 02:56:16;;;;;;;45.15;7.07;;;5.40;99.90;;;;;;4723372;30;20159;-87
2021/03/13 02:58:48;;;;;;;36.38;6.53;;;5.70;99.90;;;;;;4717437;30;20110;-85
2021/03/13 03:05:08;;;;;;;40.10;7.00;;;5.50;99.90;;;;;;4736309;30;20043;-86
2021/03/13 03:07:34;;;;;;;32.40;6.22;;;5.50;99.90;;;;;;4716732;30;20049;-88
2021/03/13 03:10:01;;;;;;;40.30;7.35;;;5.60;99.90;;;;;;4702098;30;20052;-86
2021/03/13 03:12:27;;;;;;;28.17;6.18;;;5.80;99.90;;;;;;4715160;30;20607;-84
2021/03/13 03:14:57;;;;;;;35.70;6.50;;;5.60;99.90;;;;;;4716435;30;20127;-88
2021/03/13 03:21:04;;;;;;;29.95;5.05;;;5.60;99.90;;;;;;4726298;30;20206;-87
2021/03/13 03:23:30;;;;;;;20.63;5.00;;;5.70;99.90;;;;;;4721450;30;20177;-85
2021/03/13 03:25:56;;;;;;;29.15;6.05;;;5.70;99.90;;;;;;4715318;30;20143;-87
2021/03/13 03:28:25;;;;;;;29.55;6.03;;;5.70;99.90;;;;;;4715858;30;20090;-84
2021/03/13 03:31:38;;;;;;;20.42;5.38;;;5.60;99.90;;;;;;4713356;30;20036;-88
2021/03/13 03:34:05;;;;;;;28.75;5.95;;;5.60;99.90;;;;;;4713483;30;20049;-86
2021/03/13 03:36:31;;;;;;;25.60;6.65;;;5.90;99.90;;;;;;4733787;30;20084;-88
2021/03/13 03:38:57;;;;;;;24.85;6.90;;;6.20;99.90;;;;;;4718017;30;20053;-87
2021/03/13 03:41:27;;;;;;;21.52;6.63;;;5.80;99.90;;;;;;4729562;30;20036;-87
2021/03/13 03:43:58;;;;;;;25.30;7.07;;;5.70;99.90;;;;;;4715781;30;20075;-90
2021/03/13 03:50:17;;;;;;;28.23;6.68;;;5.50;99.90;;;;;;4731416;30;20160;-86
2021/03/13 03:52:49;;;;;;;23.95;6.45;;;5.50;99.90;;;;;;4717653;30;20064;-85
2021/03/13 03:55:18;;;;;;;21.98;6.47;;;6.00;99.90;;;;;;4705686;30;20041;-88
2021/03/13 03:57:45;;;;;;;26.77;6.50;;;5.80;99.90;;;;;;4701684;30;20061;-87
2021/03/13 04:00:13;;;;;;;21.05;6.07;;;5.70;99.90;;;;;;4728255;30;20107;-86
2021/03/13 04:02:41;;;;;;;20.83;5.68;;;5.50;99.90;;;;;;4717503;30;20076;-86
2021/03/13 04:05:09;;;;;;;17.40;5.18;;;5.80;99.90;;;;;;4716088;30;20040;-84
2021/03/13 04:07:36;;;;;;;16.77;5.00;;;5.50;99.90;;;;;;4719211;30;20049;-88
2021/03/13 04:10:05;;;;;;;16.83;5.20;;;5.50;99.90;;;;;;4732227;30;20106;-86
2021/03/13 04:12:33;;;;;;;15.98;4.60;;;5.40;99.90;;;;;;4713585;30;20387;-88
2021/03/13 04:15:01;;;;;;;6.45;2.83;;;5.40;99.90;;;;;;4722306;30;20136;-84
2021/03/13 04:17:27;;;;;;;11.02;3.35;;;5.50;99.90;;;;;;4724821;30;20064;-84
2021/03/13 04:19:54;;;;;;;11.20;3.58;;;5.40;99.90;;;;;;4734879;30;20128;-87
2021/03/13 04:22:24;;;;;;;8.63;2.70;;;5.30;99.90;;;;;;4729110;30;20406;-85
2021/03/13 04:24:52;;;;;;;6.75;2.67;;;5.30;99.90;;;;;;4718272;30;20094;-86
2021/03/13 04:27:20;;;;;;;9.48;2.90;;;5.20;99.90;;;;;;4706135;30;20075;-87
2021/03/13 04:29:46;;;;;;;7.65;2.60;;;5.20;99.90;;;;;;4702055;30;20053;-86
2021/03/13 04:32:15;;;;;;;7.65;3.05;;;5.20;99.90;;;;;;4712118;30;20056;-87
2021/03/13 04:34:46;;;;;;;6.28;2.80;;;6.10;99.90;;;;;;4698738;30;20449;-87
2021/03/13 04:37:12;;;;;;;9.18;3.08;;;5.50;99.90;;;;;;4716873;30;20409;-88
2021/03/13 04:39:39;;;;;;;8.30;2.55;;;5.50;99.90;;;;;;4722215;30;20044;-86
2021/03/13 04:42:06;;;;;;;5.57;2.67;;;5.10;99.90;;;;;;4720376;30;20056;-86
2021/03/13 04:44:32;;;;;;;8.05;2.80;;;5.10;99.90;;;;;;4720553;30;20045;-89
2021/03/13 04:47:30;;;;;;;6.43;2.53;;;5.50;99.90;;;;;;4712512;30;20072;-88
2021/03/13 04:49:58;;;;;;;5.72;2.35;;;5.10;99.90;;;;;;4715286;30;20040;-88
2021/03/13 04:52:24;;;;;;;6.15;2.47;;;5.10;99.90;;;;;;4738980;30;20040;-85
2021/03/13 04:54:50;;;;;;;6.22;2.65;;;5.10;99.90;;;;;;4739788;30;20497;-88
2021/03/13 04:57:16;;;;;;;5.18;2.40;;;5.30;99.90;;;;;;4714659;30;20139;-87
2021/03/13 04:59:41;;;;;;;5.57;2.40;;;5.50;99.90;;;;;;4724598;30;20112;-85
2021/03/13 05:02:08;;;;;;;3.85;2.03;;;5.10;99.90;;;;;;4730090;30;20050;-86
2021/03/13 05:04:34;;;;;;;3.63;2.60;;;5.10;99.90;;;;;;4715092;30;20116;-87
2021/03/13 05:06:59;;;;;;;4.97;2.20;;;5.10;99.90;;;;;;4721746;30;20113;-85
2021/03/13 05:09:25;;;;;;;4.85;2.60;;;5.20;99.90;;;;;;4715224;30;20064;-84
2021/03/13 05:11:51;;;;;;;6.35;2.88;;;5.20;99.90;;;;;;4721837;30;20052;-90
2021/03/13 05:14:16;;;;;;;7.05;2.88;;;5.20;99.90;;;;;;4740175;30;20040;-84
2021/03/13 05:16:42;;;;;;;6.30;2.95;;;5.40;99.90;;;;;;4715187;30;20066;-87
2021/03/13 05:19:08;;;;;;;6.28;3.00;;;5.70;99.90;;;;;;4720814;30;20458;-87
2021/03/13 05:21:34;;;;;;;6.50;3.03;;;5.30;99.90;;;;;;4717129;30;20119;-87
2021/03/13 05:23:59;;;;;;;6.70;2.75;;;5.40;99.90;;;;;;4716000;30;20429;-84
2021/03/13 05:26:25;;;;;;;6.13;2.70;;;5.30;99.90;;;;;;4716961;30;20559;-86
2021/03/13 05:28:51;;;;;;;4.57;2.80;;;5.60;99.90;;;;;;4712338;30;20076;-88
2021/03/13 05:31:17;;;;;;;6.30;3.10;;;5.40;99.90;;;;;;4717035;30;20507;-88
2021/03/13 05:33:43;;;;;;;7.05;3.03;;;5.40;99.90;;;;;;4720802;30;20045;-86
2021/03/13 05:36:11;;;;;;;6.20;2.78;;;5.70;99.90;;;;;;4701235;30;20048;-87
2021/03/13 05:38:36;;;;;;;6.60;3.30;;;5.40;99.90;;;;;;4700642;30;20066;-84
2021/03/13 05:41:03;;;;;;;9.52;3.42;;;5.50;99.90;;;;;;4735974;30;20291;-84
2021/03/13 05:43:32;;;;;;;4.80;3.00;;;5.60;99.90;;;;;;4736571;30;20427;-84
2021/03/13 05:45:59;;;;;;;8.20;2.78;;;5.50;99.90;;;;;;4701920;30;20052;-85
2021/03/13 05:48:27;;;;;;;5.97;2.92;;;5.60;99.90;;;;;;4715639;30;20056;-84
2021/03/13 05:50:54;;;;;;;7.63;2.88;;;5.60;99.90;;;;;;4713470;30;20053;-84
2021/03/13 05:53:21;;;;;;;6.20;3.00;;;5.60;99.90;;;;;;4713892;30;20066;-82
2021/03/13 05:55:46;;;;;;;5.78;3.05;;;5.60;99.90;;;;;;4734133;30;20079;-81
2021/03/13 05:58:12;;;;;;;6.90;2.90;;;5.60;99.90;;;;;;4706942;30;20088;-82
2021/03/13 06:00:39;;;;;;;7.80;3.42;;;5.60;99.90;;;;;;4730221;30;20071;-81
2021/03/13 06:03:05;;;;;;;5.72;2.33;;;5.90;99.90;;;;;;4723004;30;20049;-81
2021/03/13 06:05:31;;;;;;;7.00;3.05;;;5.80;99.90;;;;;;4730457;30;20073;-80
2021/03/13 06:07:59;;;;;;;5.50;2.85;;;5.80;99.90;;;;;;4726046;30;20051;-82
2021/03/13 06:10:25;;;;;;;5.90;2.60;;;6.00;99.90;;;;;;4733490;30;20044;-83
2021/03/13 06:12:51;;;;;;;6.55;2.90;;;5.80;99.90;;;;;;4719962;30;20202;-83
2021/03/13 06:15:19;;;;;;;6.43;2.38;;;6.00;99.90;;;;;;4727146;30;22217;-81
2021/03/13 06:17:57;;;;;;;3.88;2.15;;;5.90;99.90;;;;;;4728278;30;20044;-82
2021/03/13 06:20:38;;;;;;;10.02;2.50;;;6.00;99.90;;;;;;4713414;30;20179;-80
2021/03/13 06:23:06;;;;;;;6.43;2.67;;;6.10;99.90;;;;;;4710803;30;20036;-82
2021/03/13 06:25:33;;;;;;;4.07;2.35;;;6.00;99.90;;;;;;4715037;30;20378;-82
2021/03/13 06:28:29;;;;;;;5.43;1.80;;;6.10;99.90;;;;;;4725739;30;20037;-82
2021/03/13 06:31:04;;;;;;;8.52;2.60;;;6.10;99.90;;;;;;4725051;30;20402;-81
2021/03/13 06:33:32;;;;;;;9.90;2.40;;;6.20;99.90;;;;;;4708671;30;20052;-82
2021/03/13 06:36:03;;;;;;;8.18;2.55;;;6.20;99.90;;;;;;4714722;30;20045;-83
2021/03/13 06:38:34;;;;;;;6.68;2.17;;;6.10;99.90;;;;;;4733278;30;20041;-86
2021/03/13 06:41:19;;;;;;;5.30;1.70;;;6.20;99.90;;;;;;4714661;30;20370;-85
2021/03/13 06:43:46;;;;;;;5.32;2.05;;;6.30;99.90;;;;;;4715011;30;20045;-84
2021/03/13 06:46:14;;;;;;;5.15;1.52;;;6.60;99.90;;;;;;4708932;30;20142;-83
2021/03/13 06:48:51;;;;;;;4.20;1.60;;;6.30;99.90;;;;;;4693989;30;20049;-81
2021/03/13 06:51:20;;;;;;;4.13;1.70;;;6.50;99.90;;;;;;4695389;30;20048;-83
2021/03/13 06:54:04;;;;;;;5.43;1.60;;;6.30;99.90;;;;;;4713593;30;20064;-83
2021/03/13 06:56:31;;;;;;;2.60;1.05;;;6.60;99.90;;;;;;4706077;30;20058;-84
2021/03/13 06:58:58;;;;;;;3.67;1.30;;;6.70;99.90;;;;;;4709434;30;20063;-84
2021/03/13 07:01:33;;;;;;;4.28;1.15;;;6.90;99.90;;;;;;4714917;30;20041;-84
2021/03/13 07:04:01;;;;;;;5.18;1.25;;;6.50;99.90;;;;;;4725289;30;20136;-85
2021/03/13 07:06:27;;;;;;;2.72;1.10;;;6.80;99.90;;;;;;4684830;30;20083;-84
2021/03/13 07:08:54;;;;;;;3.28;0.77;;;6.50;99.90;;;;;;4719990;30;20045;-84
2021/03/13 07:11:39;;;;;;;3.08;0.80;;;6.10;99.90;;;;;;4701296;30;20071;-81
2021/03/13 07:14:05;;;;;;;4.72;0.80;;;6.10;99.90;;;;;;4716237;30;20407;-81
2021/03/13 07:16:34;;;;;;;5.10;0.90;;;5.70;99.90;;;;;;4715751;30;20455;-84
2021/03/13 07:19:11;;;;;;;2.35;0.93;;;5.60;99.90;;;;;;4717205;30;20893;-84
2021/03/13 07:21:39;;;;;;;3.33;0.65;;;5.50;99.90;;;;;;4715935;30;20175;-83
2021/03/13 07:24:11;;;;;;;4.03;0.68;;;5.50;99.90;;;;;;4716456;30;20079;-86
2021/03/13 07:26:41;;;;;;;3.50;0.77;;;5.50;99.90;;;;;;4719293;30;20057;-83
2021/03/13 07:29:09;;;;;;;4.72;1.17;;;5.60;99.90;;;;;;4719388;30;20041;-84
2021/03/13 07:31:39;;;;;;;6.68;1.30;;;5.80;99.90;;;;;;4716759;30;20095;-85
2021/03/13 07:34:09;;;;;;;8.35;1.23;;;5.50;99.90;;;;;;4701469;30;20147;-85
2021/03/13 07:36:41;;;;;;;11.23;1.50;;;5.60;99.90;;;;;;4713160;30;20045;-84
2021/03/13 07:39:18;;;;;;;10.35;1.27;;;5.60;99.90;;;;;;4731689;30;20406;-83
2021/03/13 07:41:57;;;;;;;8.93;1.33;;;5.70;99.90;;;;;;4713223;30;20130;-82
2021/03/13 07:44:23;;;;;;;13.73;1.60;;;5.80;99.90;;;;;;4710009;30;20059;-83
2021/03/13 07:47:15;;;;;;;11.77;1.58;;;6.00;99.90;;;;;;4718295;30;20558;-83
2021/03/13 07:49:41;;;;;;;16.38;1.55;;;6.00;99.90;;;;;;4713208;30;20387;-83
2021/03/13 07:52:09;;;;;;;14.35;1.75;;;6.40;99.90;;;;;;4712583;30;20068;-83
2021/03/13 07:54:41;;;;;;;16.95;1.70;;;6.20;99.90;;;;;;4718658;30;20500;-81
2021/03/13 07:57:10;;;;;;;11.82;1.63;;;6.20;99.90;;;;;;4732756;30;20128;-84
2021/03/13 07:59:50;;;;;;;13.35;2.25;;;6.30;99.90;;;;;;4714564;30;20056;-83
2021/03/13 08:02:28;;;;;;;17.80;1.95;;;6.40;99.90;;;;;;4711921;30;20096;-83
2021/03/13 08:05:03;;;;;;;11.15;2.10;;;6.50;99.90;;;;;;4712632;30;20081;-83
2021/03/13 08:07:55;;;;;;;10.77;1.97;;;6.70;99.90;;;;;;4710656;30;20041;-84
2021/03/13 08:10:45;;;;;;;10.43;2.05;;;6.60;99.90;;;;;;4712851;30;20048;-83
2021/03/13 08:13:42;;;;;;;18.05;2.17;;;6.70;99.90;;;;;;4716153;30;20049;-83
2021/03/13 08:16:12;;;;;;;27.23;2.38;;;6.80;99.90;;;;;;4679965;30;20145;-84
2021/03/13 08:18:42;;;;;;;16.63;2.63;;;6.90;99.90;;;;;;4676371;30;20050;-83
2021/03/13 08:21:19;;;;;;;15.85;2.50;;;7.30;99.90;;;;;;4680166;30;20142;-85
2021/03/13 08:23:48;;;;;;;12.70;2.38;;;6.90;99.90;;;;;;4667105;30;20160;-85
2021/03/13 08:26:15;;;;;;;20.38;3.08;;;6.90;99.90;;;;;;4671495;30;20058;-84
2021/03/13 08:28:47;;;;;;;24.33;3.78;;;7.10;99.90;;;;;;4664698;30;20066;-84
2021/03/13 08:31:24;;;;;;;16.05;2.42;;;7.00;99.90;;;;;;4677001;30;20372;-82
2021/03/13 08:33:52;;;;;;;17.25;2.95;;;6.80;99.90;;;;;;4680631;30;20058;-83
2021/03/13 08:36:50;;;;;;;20.88;3.22;;;6.80;99.90;;;;;;4682908;30;20182;-85
2021/03/13 08:39:23;;;;;;;16.25;2.47;;;6.90;99.90;;;;;;4654933;30;20096;-82
2021/03/13 08:41:51;;;;;;;20.60;2.97;;;6.90;99.90;;;;;;4640692;30;20076;-81
2021/03/13 08:44:25;;;;;;;28.23;3.55;;;7.00;99.90;;;;;;4642869;30;20063;-81
2021/03/13 08:47:14;;;;;;;29.10;3.70;;;7.00;99.90;;;;;;4640382;30;20067;-83
2021/03/13 08:49:47;;;;;;;18.52;3.85;;;7.00;99.90;;;;;;4650247;30;20063;-82
2021/03/13 08:52:16;;;;;;;23.92;3.20;;;7.10;99.90;;;;;;4659737;30;20062;-82
2021/03/13 08:54:48;;;;;;;18.20;2.95;;;7.20;99.90;;;;;;4670775;30;20046;-85
2021/03/13 08:57:17;;;;;;;26.83;3.53;;;7.00;99.90;;;;;;4650838;30;20441;-82
2021/03/13 08:59:57;;;;;;;18.55;3.67;;;7.00;99.90;;;;;;4648057;30;20101;-82
2021/03/13 09:03:09;;;;;;;17.10;2.97;;;7.00;99.90;;;;;;4650387;30;20121;-84
2021/03/13 09:05:35;;;;;;;18.77;2.78;;;7.00;99.90;;;;;;4649881;30;20058;-82
2021/03/13 09:08:01;;;;;;;16.17;2.50;;;7.00;99.90;;;;;;4662292;30;20137;-83
2021/03/13 09:10:27;;;;;;;25.50;3.75;;;7.10;99.90;;;;;;4663071;30;20141;-82
2021/03/13 09:12:53;;;;;;;20.45;3.28;;;7.20;99.90;;;;;;4636096;30;20149;-85
2021/03/13 09:15:19;;;;;;;16.58;2.60;;;7.30;99.90;;;;;;4655946;30;20061;-83
2021/03/13 09:17:45;;;;;;;27.77;4.05;;;7.30;99.90;;;;;;4715320;30;20128;-82
2021/03/13 09:20:17;;;;;;;18.30;2.72;;;7.40;99.90;;;;;;4715515;30;20076;-82
2021/03/13 09:22:46;;;;;;;22.50;3.33;;;7.60;99.90;;;;;;4712481;30;20045;-84
2021/03/13 09:25:14;;;;;;;15.30;2.65;;;7.60;99.90;;;;;;4710094;30;20245;-79
2021/03/13 09:27:41;;;;;;;17.75;3.38;;;7.60;99.90;;;;;;4716516;30;20056;-82
2021/03/13 09:30:20;;;;;;;20.08;3.00;;;7.60;99.90;;;;;;4713914;30;20098;-83
2021/03/13 09:32:54;;;;;;;18.67;3.17;;;7.60;99.90;;;;;;4713687;30;20116;-85
2021/03/13 09:35:23;;;;;;;18.00;3.05;;;7.60;99.90;;;;;;4715925;30;20037;-85
2021/03/13 09:37:48;;;;;;;18.33;2.72;;;7.90;99.90;;;;;;4713488;30;20045;-88
2021/03/13 09:40:17;;;;;;;14.10;2.40;;;7.90;99.90;;;;;;4710526;30;20057;-85
2021/03/13 09:42:44;;;;;;;19.27;2.97;;;7.90;99.90;;;;;;4711045;30;20052;-85
2021/03/13 09:45:12;;;;;;;27.55;3.50;;;8.10;99.90;;;;;;4697844;30;20049;-83
2021/03/13 09:47:42;;;;;;;19.70;2.95;;;8.00;99.90;;;;;;4710598;30;20065;-86
2021/03/13 09:50:20;;;;;;;16.50;2.40;;;8.00;99.90;;;;;;4709954;30;20073;-83
2021/03/13 09:52:49;;;;;;;25.75;3.67;;;7.90;99.90;;;;;;4693533;30;20122;-85
2021/03/13 09:55:18;;;;;;;14.05;2.63;;;8.00;99.90;;;;;;4712480;30;20094;-83
2021/03/13 09:57:46;;;;;;;12.98;2.92;;;8.30;99.90;;;;;;4716998;30;20053;-83
2021/03/13 10:00:20;;;;;;;17.77;2.95;;;8.30;99.90;;;;;;4722555;30;20396;-83
2021/03/13 10:03:13;;;;;;;18.13;3.08;;;8.00;99.90;;;;;;4711374;30;20052;-83
2021/03/13 10:05:40;;;;;;;13.88;2.55;;;8.00;99.90;;;;;;4717067;30;20057;-82
2021/03/13 10:08:09;;;;;;;10.18;1.88;;;7.80;99.90;;;;;;4712671;30;20069;-82
2021/03/13 10:10:35;;;;;;;13.82;2.22;;;7.70;99.90;;;;;;4713022;30;20053;-82
2021/03/13 10:13:03;;;;;;;17.27;2.80;;;7.60;99.90;;;;;;4710361;30;20525;-80
2021/03/13 10:15:40;;;;;;;20.70;2.83;;;7.70;99.90;;;;;;4724236;30;20064;-85
2021/03/13 10:18:19;;;;;;;19.23;2.33;;;7.90;99.90;;;;;;4711192;30;20114;-81
2021/03/13 10:20:45;;;;;;;17.77;3.08;;;8.20;99.90;;;;;;4710913;30;20152;-80
2021/03/13 10:23:13;;;;;;;17.77;3.17;;;8.30;99.90;;;;;;4725633;30;20487;-83
2021/03/13 10:25:41;;;;;;;20.50;3.05;;;8.30;99.90;;;;;;4712902;30;20427;-85
2021/03/13 10:28:13;;;;;;;19.08;2.95;;;8.40;99.90;;;;;;4718025;30;20049;-85
2021/03/13 10:30:41;;;;;;;17.67;3.03;;;8.50;99.90;;;;;;4697352;30;20049;-89
2021/03/13 10:33:07;;;;;;;20.33;3.83;;;9.00;99.90;;;;;;4697451;30;20041;-87
2021/03/13 10:35:34;;;;;;;17.55;2.53;;;8.30;99.90;;;;;;4713513;30;20457;-88
2021/03/13 10:38:15;;;;;;;20.17;3.10;;;8.30;99.90;;;;;;4710509;30;20041;-89
2021/03/13 10:40:46;;;;;;;21.23;3.38;;;8.30;99.90;;;;;;4716412;30;20123;-84
2021/03/13 10:43:31;;;;;;;13.18;2.70;;;8.20;99.90;;;;;;4709404;30;20045;-84
2021/03/13 10:45:56;;;;;;;17.83;2.67;;;8.20;99.90;;;;;;4714454;30;20519;-85
2021/03/13 10:48:24;;;;;;;18.92;3.45;;;8.00;99.90;;;;;;4726271;30;20040;-80
2021/03/13 10:50:50;;;;;;;19.40;2.85;;;7.90;99.90;;;;;;4712229;30;20053;-83
2021/03/13 10:53:35;;;;;;;18.17;2.60;;;7.70;99.90;;;;;;4714640;30;20048;-89
2021/03/13 10:56:06;;;;;;;27.33;3.75;;;7.60;99.90;;;;;;4711064;30;20156;-83
2021/03/13 10:58:33;;;;;;;28.13;3.88;;;7.40;99.90;;;;;;4709604;30;20049;-84
2021/03/13 11:01:02;;;;;;;17.70;3.00;;;7.60;99.90;;;;;;4696705;30;20060;-85
2021/03/13 11:03:28;;;;;;;19.73;2.95;;;7.70;99.90;;;;;;4709142;30;20057;-83
2021/03/13 11:05:55;;;;;;;12.23;2.50;;;7.60;99.90;;;;;;4712450;30;20459;-85
2021/03/13 11:08:22;;;;;;;16.48;1.90;;;8.00;99.90;;;;;;4708864;30;20126;-88
2021/03/13 11:10:49;;;;;;;7.80;1.30;;;7.70;99.90;;;;;;4730459;30;20048;-82
2021/03/13 11:13:17;;;;;;;9.40;1.63;;;7.50;99.90;;;;;;4710452;30;20044;-84
2021/03/13 11:15:43;;;;;;;14.70;2.67;;;7.60;99.90;;;;;;4712344;30;20177;-82
2021/03/13 11:18:09;;;;;;;16.80;2.25;;;7.70;99.90;;;;;;4696624;30;20136;-87
2021/03/13 11:20:36;;;;;;;17.45;2.80;;;8.10;99.90;;;;;;4710474;30;20394;-87
2021/03/13 11:23:03;;;;;;;14.75;3.13;;;8.10;99.90;;;;;;4710216;30;20506;-85
2021/03/13 11:25:28;;;;;;;15.27;2.53;;;7.90;99.90;;;;;;4719617;30;20096;-83
2021/03/13 11:27:54;;;;;;;20.92;2.33;;;7.90;99.90;;;;;;4714489;30;20080;-83
2021/03/13 11:30:21;;;;;;;19.17;2.63;;;7.90;99.90;;;;;;4717631;30;20052;-86
2021/03/13 11:32:47;;;;;;;17.92;2.47;;;7.90;99.90;;;;;;4716365;30;20091;-85
2021/03/13 11:35:13;;;;;;;15.82;2.60;;;7.90;99.90;;;;;;4714291;30;20041;-87
2021/03/13 11:37:40;;;;;;;15.05;1.90;;;8.20;99.90;;;;;;4721384;30;20502;-87
2021/03/13 11:40:09;;;;;;;13.05;2.47;;;8.30;99.90;;;;;;4698657;30;20483;-88
2021/03/13 11:42:35;;;;;;;9.65;1.95;;;8.40;99.90;;;;;;4719693;30;20045;-87
2021/03/13 11:45:03;;;;;;;16.77;2.67;;;8.50;99.90;;;;;;4699413;30;20494;-85
2021/03/13 11:47:28;;;;;;;17.30;2.65;;;8.50;99.90;;;;;;4715177;30;20466;-85
2021/03/13 11:49:54;;;;;;;15.70;1.90;;;8.50;99.90;;;;;;4713993;30;20065;-82
2021/03/13 11:52:24;;;;;;;14.73;2.30;;;8.50;99.90;;;;;;4716300;30;20498;-85
2021/03/13 11:54:51;;;;;;;12.10;2.50;;;8.50;99.90;;;;;;4723720;30;20075;-85
2021/03/13 11:57:17;;;;;;;12.52;2.00;;;8.50;99.90;;;;;;4718171;30;20061;-85
2021/03/13 11:59:47;;;;;;;19.17;2.70;;;8.60;99.90;;;;;;4715360;30;20072;-84
2021/03/13 12:02:16;;;;;;;9.98;2.08;;;8.60;99.90;;;;;;4720896;30;20471;-84
2021/03/13 12:04:43;;;;;;;12.15;2.25;;;8.90;99.90;;;;;;4718878;30;20119;-84
2021/03/13 12:07:11;;;;;;;13.20;2.35;;;8.90;99.50;;;;;;4721843;30;20077;-83
2021/03/13 12:09:37;;;;;;;9.57;1.90;;;8.90;99.80;;;;;;4724877;30;20139;-84
2021/03/13 12:12:06;;;;;;;14.07;2.22;;;8.90;99.90;;;;;;4732625;30;20535;-84
2021/03/13 12:14:36;;;;;;;11.82;2.20;;;8.90;99.90;;;;;;4716558;30;20124;-85
2021/03/13 12:17:03;;;;;;;16.15;2.17;;;8.90;99.20;;;;;;4719510;30;20129;-87
2021/03/13 12:19:29;;;;;;;18.13;2.35;;;9.10;99.90;;;;;;4714284;30;20527;-85
2021/03/13 12:21:55;;;;;;;14.68;2.55;;;9.10;99.60;;;;;;4714905;30;20491;-84
2021/03/13 12:24:21;;;;;;;7.35;1.80;;;9.10;99.60;;;;;;4687192;30;20062;-83
2021/03/13 12:26:48;;;;;;;20.88;3.25;;;9.10;99.20;;;;;;4716954;30;20498;-84
2021/03/13 12:29:14;;;;;;;14.77;2.75;;;8.70;99.90;;;;;;4729602;30;20119;-87
2021/03/13 12:31:43;;;;;;;13.52;2.25;;;8.60;99.90;;;;;;4701151;30;20094;-86
2021/03/13 12:34:09;;;;;;;13.80;2.97;;;8.50;99.90;;;;;;4718498;30;20145;-86
2021/03/13 12:36:35;;;;;;;11.77;2.22;;;8.50;99.90;;;;;;4729044;30;20078;-85
2021/03/13 12:39:02;;;;;;;18.77;3.00;;;8.50;99.90;;;;;;4706531;30;20388;-85
2021/03/13 12:41:28;;;;;;;11.20;2.60;;;8.50;99.90;;;;;;4714151;30;20188;-85
2021/03/13 12:43:57;;;;;;;15.90;3.05;;;8.60;99.90;;;;;;4725479;30;20560;-88
2021/03/13 12:47:14;;;;;;;23.33;3.25;;;8.10;99.90;;;;;;4705727;30;20052;-88
2021/03/13 12:53:29;;;;;;;11.30;2.22;;;8.00;99.90;;;;;;4718043;30;20052;-86
2021/03/13 12:55:58;;;;;;;11.60;2.35;;;8.20;99.90;;;;;;4709321;30;20057;-83
2021/03/13 12:58:27;;;;;;;10.02;2.15;;;8.30;99.90;;;;;;4717992;30;20044;-82
2021/03/13 13:04:33;;;;;;;10.02;1.65;;;8.80;99.90;;;;;;4690363;30;20123;-87
2021/03/13 13:06:59;;;;;;;12.30;2.30;;;8.40;99.90;;;;;;4662367;30;20054;-86
2021/03/13 13:09:28;;;;;;;16.60;2.67;;;8.20;99.90;;;;;;4662983;30;20136;-83
2021/03/13 13:11:54;;;;;;;17.50;2.50;;;8.00;99.90;;;;;;4674962;30;20054;-85
2021/03/13 13:14:22;;;;;;;8.98;1.70;;;7.90;99.90;;;;;;4660724;30;20058;-85
2021/03/13 13:16:48;;;;;;;11.18;2.25;;;7.70;99.90;;;;;;4662192;30;20082;-86
2021/03/13 13:19:38;;;;;;;19.40;1.98;;;7.70;99.90;;;;;;4665331;30;20059;-84
2021/03/13 13:22:04;;;;;;;7.65;1.80;;;7.90;99.90;;;;;;4671436;30;20050;-83
2021/03/13 13:24:30;;;;;;;13.40;1.95;;;8.40;99.90;;;;;;4680594;30;20222;-83
2021/03/13 13:26:57;;;;;;;15.35;2.15;;;8.50;99.90;;;;;;4675785;30;20068;-84
2021/03/13 13:29:24;;;;;;;9.80;2.03;;;8.60;99.90;;;;;;4677797;30;20081;-87
2021/03/13 13:31:52;;;;;;;13.68;2.70;;;8.50;99.90;;;;;;4665640;30;20060;-85
2021/03/13 13:34:20;;;;;;;7.03;1.88;;;8.30;99.90;;;;;;4695702;30;20081;-87
2021/03/13 13:36:46;;;;;;;12.45;2.03;;;8.20;99.90;;;;;;4678518;30;20062;-85